sensor_id;sensor_type;location;lat;lon;timestamp;P1;durP1;ratioP1;P2;durP2;ratioP2
26936;SDS011;14495;48.116;11.676;2023-05-18T00:01:56;0.90;;;0.80;;
26936;SDS011;14495;48.116;11.676;2023-05-18T00:04:22;3.15;;;1.02;;
26936;SDS011;14495;48.116;11.676;2023-05-18T00:06:48;2.17;;;1.00;;
26936;SDS011;14495;48.116;11.676;2023-05-18T00:09:23;1.63;;;0.90;;
26936;SDS011;14495;48.116;11.676;2023-05-18T00:11:49;1.48;;;0.85;;
26936;SDS011;14495;48.116;11.676;2023-05-18T00:14:15;1.73;;;1.00;;
26936;SDS011;14495;48.116;11.676;2023-05-18T00:16:40;3.20;;;1.15;;
26936;SDS011;14495;48.116;11.676;2023-05-18T00:19:08;1.52;;;1.10;;
26936;SDS011;14495;48.116;11.676;2023-05-18T00:21:33;1.10;;;0.75;;
26936;SDS011;14495;48.116;11.676;2023-05-18T00:23:59;1.88;;;1.10;;
26936;SDS011;14495;48.116;11.676;2023-05-18T00:26:25;1.05;;;0.68;;
26936;SDS011;14495;48.116;11.676;2023-05-18T00:28:50;0.80;;;0.65;;
26936;SDS011;14495;48.116;11.676;2023-05-18T00:31:16;1.88;;;1.10;;
26936;SDS011;14495;48.116;11.676;2023-05-18T00:33:41;1.60;;;0.80;;
26936;SDS011;14495;48.116;11.676;2023-05-18T00:36:09;2.50;;;0.98;;
26936;SDS011;14495;48.116;11.676;2023-05-18T00:38:35;1.58;;;0.88;;
26936;SDS011;14495;48.116;11.676;2023-05-18T00:41:00;1.70;;;0.88;;
26936;SDS011;14495;48.116;11.676;2023-05-18T00:43:26;3.17;;;1.27;;
26936;SDS011;14495;48.116;11.676;2023-05-18T00:45:51;1.40;;;1.05;;
26936;SDS011;14495;48.116;11.676;2023-05-18T00:48:16;1.85;;;1.00;;
26936;SDS011;14495;48.116;11.676;2023-05-18T00:50:42;2.92;;;0.98;;
26936;SDS011;14495;48.116;11.676;2023-05-18T00:53:07;3.97;;;1.02;;
26936;SDS011;14495;48.116;11.676;2023-05-18T00:55:35;1.00;;;0.80;;
26936;SDS011;14495;48.116;11.676;2023-05-18T00:58:00;1.25;;;0.90;;
26936;SDS011;14495;48.116;11.676;2023-05-18T01:00:26;1.90;;;0.98;;
26936;SDS011;14495;48.116;11.676;2023-05-18T01:02:52;1.75;;;0.98;;
26936;SDS011;14495;48.116;11.676;2023-05-18T01:05:18;2.33;;;0.90;;
26936;SDS011;14495;48.116;11.676;2023-05-18T01:07:44;1.00;;;0.75;;
26936;SDS011;14495;48.116;11.676;2023-05-18T01:10:10;1.23;;;0.70;;
26936;SDS011;14495;48.116;11.676;2023-05-18T01:12:42;1.25;;;0.90;;
26936;SDS011;14495;48.116;11.676;2023-05-18T01:15:13;2.13;;;0.90;;
26936;SDS011;14495;48.116;11.676;2023-05-18T01:20:31;1.00;;;0.88;;
26936;SDS011;14495;48.116;11.676;2023-05-18T01:23:21;1.15;;;0.77;;
26936;SDS011;14495;48.116;11.676;2023-05-18T01:28:29;1.25;;;0.77;;
26936;SDS011;14495;48.116;11.676;2023-05-18T01:30:57;0.95;;;0.65;;
26936;SDS011;14495;48.116;11.676;2023-05-18T01:33:23;1.48;;;0.82;;
26936;SDS011;14495;48.116;11.676;2023-05-18T01:35:49;1.05;;;0.85;;
26936;SDS011;14495;48.116;11.676;2023-05-18T01:38:25;1.70;;;1.02;;
26936;SDS011;14495;48.116;11.676;2023-05-18T01:40:58;0.95;;;0.55;;
26936;SDS011;14495;48.116;11.676;2023-05-18T01:43:33;1.20;;;0.80;;
26936;SDS011;14495;48.116;11.676;2023-05-18T01:46:03;1.88;;;1.10;;
26936;SDS011;14495;48.116;11.676;2023-05-18T01:48:34;1.70;;;1.00;;
26936;SDS011;14495;48.116;11.676;2023-05-18T01:51:03;1.88;;;1.13;;
26936;SDS011;14495;48.116;11.676;2023-05-18T01:53:36;1.83;;;1.08;;
26936;SDS011;14495;48.116;11.676;2023-05-18T01:56:07;1.95;;;1.15;;
26936;SDS011;14495;48.116;11.676;2023-05-18T01:58:35;1.90;;;1.10;;
26936;SDS011;14495;48.116;11.676;2023-05-18T02:01:02;2.10;;;1.08;;
26936;SDS011;14495;48.116;11.676;2023-05-18T02:03:30;2.35;;;1.20;;
26936;SDS011;14495;48.116;11.676;2023-05-18T02:05:56;2.20;;;1.23;;
26936;SDS011;14495;48.116;11.676;2023-05-18T02:08:21;2.13;;;1.20;;
26936;SDS011;14495;48.116;11.676;2023-05-18T02:10:46;2.17;;;0.95;;
26936;SDS011;14495;48.116;11.676;2023-05-18T02:13:12;1.42;;;1.02;;
26936;SDS011;14495;48.116;11.676;2023-05-18T02:15:37;2.45;;;1.17;;
26936;SDS011;14495;48.116;11.676;2023-05-18T02:18:02;4.25;;;1.30;;
26936;SDS011;14495;48.116;11.676;2023-05-18T02:20:28;3.83;;;1.10;;
26936;SDS011;14495;48.116;11.676;2023-05-18T02:22:57;2.22;;;1.25;;
26936;SDS011;14495;48.116;11.676;2023-05-18T02:25:23;1.92;;;1.20;;
26936;SDS011;14495;48.116;11.676;2023-05-18T02:27:51;2.17;;;1.10;;
26936;SDS011;14495;48.116;11.676;2023-05-18T02:30:17;3.55;;;1.35;;
26936;SDS011;14495;48.116;11.676;2023-05-18T02:32:42;1.65;;;1.08;;
26936;SDS011;14495;48.116;11.676;2023-05-18T02:35:11;2.17;;;1.30;;
26936;SDS011;14495;48.116;11.676;2023-05-18T02:37:36;3.08;;;1.20;;
26936;SDS011;14495;48.116;11.676;2023-05-18T02:40:05;3.58;;;1.30;;
26936;SDS011;14495;48.116;11.676;2023-05-18T02:42:34;2.35;;;1.00;;
26936;SDS011;14495;48.116;11.676;2023-05-18T02:44:59;2.47;;;1.30;;
26936;SDS011;14495;48.116;11.676;2023-05-18T02:47:26;1.80;;;1.30;;
26936;SDS011;14495;48.116;11.676;2023-05-18T02:49:51;1.33;;;1.05;;
26936;SDS011;14495;48.116;11.676;2023-05-18T02:52:16;1.58;;;1.15;;
26936;SDS011;14495;48.116;11.676;2023-05-18T02:54:42;1.55;;;1.20;;
26936;SDS011;14495;48.116;11.676;2023-05-18T02:57:07;2.90;;;1.63;;
26936;SDS011;14495;48.116;11.676;2023-05-18T02:59:32;2.42;;;1.20;;
26936;SDS011;14495;48.116;11.676;2023-05-18T03:01:58;2.22;;;1.10;;
26936;SDS011;14495;48.116;11.676;2023-05-18T03:04:23;2.17;;;1.08;;
26936;SDS011;14495;48.116;11.676;2023-05-18T03:06:49;1.42;;;1.10;;
26936;SDS011;14495;48.116;11.676;2023-05-18T03:09:16;1.92;;;1.10;;
26936;SDS011;14495;48.116;11.676;2023-05-18T03:11:43;1.58;;;0.90;;
26936;SDS011;14495;48.116;11.676;2023-05-18T03:14:08;1.52;;;1.27;;
26936;SDS011;14495;48.116;11.676;2023-05-18T03:16:34;1.13;;;0.90;;
26936;SDS011;14495;48.116;11.676;2023-05-18T03:19:02;2.03;;;1.10;;
26936;SDS011;14495;48.116;11.676;2023-05-18T03:21:28;1.38;;;0.88;;
26936;SDS011;14495;48.116;11.676;2023-05-18T03:23:57;1.83;;;0.70;;
26936;SDS011;14495;48.116;11.676;2023-05-18T03:26:23;1.30;;;1.10;;
26936;SDS011;14495;48.116;11.676;2023-05-18T03:28:50;0.88;;;0.80;;
26936;SDS011;14495;48.116;11.676;2023-05-18T03:31:15;1.17;;;0.90;;
26936;SDS011;14495;48.116;11.676;2023-05-18T03:33:41;0.82;;;0.80;;
26936;SDS011;14495;48.116;11.676;2023-05-18T03:36:06;1.20;;;0.85;;
26936;SDS011;14495;48.116;11.676;2023-05-18T03:38:32;1.23;;;0.60;;
26936;SDS011;14495;48.116;11.676;2023-05-18T03:40:57;0.98;;;0.88;;
26936;SDS011;14495;48.116;11.676;2023-05-18T03:43:23;0.70;;;0.65;;
26936;SDS011;14495;48.116;11.676;2023-05-18T03:45:49;0.98;;;0.60;;
26936;SDS011;14495;48.116;11.676;2023-05-18T03:48:15;1.15;;;0.70;;
26936;SDS011;14495;48.116;11.676;2023-05-18T03:50:41;0.93;;;0.65;;
26936;SDS011;14495;48.116;11.676;2023-05-18T03:53:06;2.33;;;0.70;;
26936;SDS011;14495;48.116;11.676;2023-05-18T03:55:33;1.25;;;0.80;;
26936;SDS011;14495;48.116;11.676;2023-05-18T03:57:58;0.90;;;0.73;;
26936;SDS011;14495;48.116;11.676;2023-05-18T04:00:24;0.70;;;0.60;;
26936;SDS011;14495;48.116;11.676;2023-05-18T04:02:49;0.95;;;0.63;;
26936;SDS011;14495;48.116;11.676;2023-05-18T04:05:16;1.23;;;0.77;;
26936;SDS011;14495;48.116;11.676;2023-05-18T04:07:41;0.65;;;0.50;;
26936;SDS011;14495;48.116;11.676;2023-05-18T04:10:10;0.77;;;0.60;;
26936;SDS011;14495;48.116;11.676;2023-05-18T04:12:37;1.20;;;0.80;;
26936;SDS011;14495;48.116;11.676;2023-05-18T04:15:02;0.70;;;0.55;;
26936;SDS011;14495;48.116;11.676;2023-05-18T04:17:28;0.70;;;0.50;;
26936;SDS011;14495;48.116;11.676;2023-05-18T04:19:53;0.98;;;0.60;;
26936;SDS011;14495;48.116;11.676;2023-05-18T04:22:19;0.60;;;0.55;;
26936;SDS011;14495;48.116;11.676;2023-05-18T04:24:46;1.30;;;0.65;;
26936;SDS011;14495;48.116;11.676;2023-05-18T04:27:12;0.70;;;0.68;;
26936;SDS011;14495;48.116;11.676;2023-05-18T04:29:38;1.33;;;0.70;;
26936;SDS011;14495;48.116;11.676;2023-05-18T04:32:07;3.28;;;1.45;;
26936;SDS011;14495;48.116;11.676;2023-05-18T04:34:34;0.73;;;0.52;;
26936;SDS011;14495;48.116;11.676;2023-05-18T04:37:01;0.50;;;0.50;;
26936;SDS011;14495;48.116;11.676;2023-05-18T04:39:29;0.52;;;0.32;;
26936;SDS011;14495;48.116;11.676;2023-05-18T04:41:56;1.13;;;0.70;;
26936;SDS011;14495;48.116;11.676;2023-05-18T04:44:25;0.70;;;0.47;;
26936;SDS011;14495;48.116;11.676;2023-05-18T04:46:52;0.85;;;0.50;;
26936;SDS011;14495;48.116;11.676;2023-05-18T04:49:18;1.38;;;0.60;;
26936;SDS011;14495;48.116;11.676;2023-05-18T04:51:50;0.50;;;0.50;;
26936;SDS011;14495;48.116;11.676;2023-05-18T04:54:26;0.98;;;0.60;;
26936;SDS011;14495;48.116;11.676;2023-05-18T04:56:54;1.58;;;0.60;;
26936;SDS011;14495;48.116;11.676;2023-05-18T04:59:20;0.55;;;0.30;;
26936;SDS011;14495;48.116;11.676;2023-05-18T05:01:50;0.60;;;0.52;;
26936;SDS011;14495;48.116;11.676;2023-05-18T05:04:19;0.50;;;0.40;;
26936;SDS011;14495;48.116;11.676;2023-05-18T05:06:45;0.52;;;0.47;;
26936;SDS011;14495;48.116;11.676;2023-05-18T05:09:11;1.35;;;0.70;;
26936;SDS011;14495;48.116;11.676;2023-05-18T05:11:38;0.73;;;0.50;;
26936;SDS011;14495;48.116;11.676;2023-05-18T05:14:04;0.55;;;0.50;;
26936;SDS011;14495;48.116;11.676;2023-05-18T05:16:32;0.77;;;0.50;;
26936;SDS011;14495;48.116;11.676;2023-05-18T05:18:58;0.95;;;0.65;;
26936;SDS011;14495;48.116;11.676;2023-05-18T05:21:24;0.63;;;0.50;;
26936;SDS011;14495;48.116;11.676;2023-05-18T05:23:49;0.73;;;0.47;;
26936;SDS011;14495;48.116;11.676;2023-05-18T05:26:15;1.45;;;0.70;;
26936;SDS011;14495;48.116;11.676;2023-05-18T05:28:40;1.30;;;0.63;;
26936;SDS011;14495;48.116;11.676;2023-05-18T05:31:08;0.90;;;0.60;;
26936;SDS011;14495;48.116;11.676;2023-05-18T05:33:33;1.13;;;0.50;;
26936;SDS011;14495;48.116;11.676;2023-05-18T05:35:59;1.10;;;0.60;;
26936;SDS011;14495;48.116;11.676;2023-05-18T05:38:24;1.33;;;0.50;;
26936;SDS011;14495;48.116;11.676;2023-05-18T05:40:50;0.77;;;0.70;;
26936;SDS011;14495;48.116;11.676;2023-05-18T05:43:15;2.75;;;0.90;;
26936;SDS011;14495;48.116;11.676;2023-05-18T05:45:41;1.27;;;0.60;;
26936;SDS011;14495;48.116;11.676;2023-05-18T05:48:07;2.40;;;0.65;;
26936;SDS011;14495;48.116;11.676;2023-05-18T05:50:33;1.98;;;0.80;;
26936;SDS011;14495;48.116;11.676;2023-05-18T05:52:58;3.03;;;1.10;;
26936;SDS011;14495;48.116;11.676;2023-05-18T05:55:26;1.63;;;0.98;;
26936;SDS011;14495;48.116;11.676;2023-05-18T05:57:52;1.25;;;0.95;;
26936;SDS011;14495;48.116;11.676;2023-05-18T06:00:17;1.50;;;1.00;;
26936;SDS011;14495;48.116;11.676;2023-05-18T06:02:43;3.17;;;1.50;;
26936;SDS011;14495;48.116;11.676;2023-05-18T06:05:08;2.22;;;1.67;;
26936;SDS011;14495;48.116;11.676;2023-05-18T06:07:34;7.28;;;1.95;;
26936;SDS011;14495;48.116;11.676;2023-05-18T06:10:02;4.68;;;2.20;;
26936;SDS011;14495;48.116;11.676;2023-05-18T06:12:27;5.45;;;2.47;;
26936;SDS011;14495;48.116;11.676;2023-05-18T06:14:53;3.55;;;2.00;;
26936;SDS011;14495;48.116;11.676;2023-05-18T06:17:25;3.08;;;2.13;;
26936;SDS011;14495;48.116;11.676;2023-05-18T06:19:51;6.05;;;2.63;;
26936;SDS011;14495;48.116;11.676;2023-05-18T06:22:19;6.70;;;2.45;;
26936;SDS011;14495;48.116;11.676;2023-05-18T06:24:44;5.40;;;2.67;;
26936;SDS011;14495;48.116;11.676;2023-05-18T06:27:10;3.63;;;2.13;;
26936;SDS011;14495;48.116;11.676;2023-05-18T06:29:36;5.28;;;2.45;;
26936;SDS011;14495;48.116;11.676;2023-05-18T06:32:01;5.13;;;2.83;;
26936;SDS011;14495;48.116;11.676;2023-05-18T06:34:27;5.07;;;2.30;;
26936;SDS011;14495;48.116;11.676;2023-05-18T06:36:52;5.50;;;2.08;;
26936;SDS011;14495;48.116;11.676;2023-05-18T06:39:17;4.78;;;2.58;;
26936;SDS011;14495;48.116;11.676;2023-05-18T06:41:45;3.72;;;2.60;;
26936;SDS011;14495;48.116;11.676;2023-05-18T06:44:10;6.10;;;2.50;;
26936;SDS011;14495;48.116;11.676;2023-05-18T06:46:36;5.18;;;2.30;;
26936;SDS011;14495;48.116;11.676;2023-05-18T06:49:03;3.65;;;1.90;;
26936;SDS011;14495;48.116;11.676;2023-05-18T06:51:29;4.68;;;2.10;;
26936;SDS011;14495;48.116;11.676;2023-05-18T06:53:55;2.35;;;1.25;;
26936;SDS011;14495;48.116;11.676;2023-05-18T06:56:20;7.38;;;2.65;;
26936;SDS011;14495;48.116;11.676;2023-05-18T06:58:46;7.15;;;2.70;;
26936;SDS011;14495;48.116;11.676;2023-05-18T07:01:11;7.07;;;2.53;;
26936;SDS011;14495;48.116;11.676;2023-05-18T07:03:37;8.98;;;2.33;;
26936;SDS011;14495;48.116;11.676;2023-05-18T07:06:02;7.70;;;2.22;;
26936;SDS011;14495;48.116;11.676;2023-05-18T07:08:28;5.22;;;1.95;;
26936;SDS011;14495;48.116;11.676;2023-05-18T07:10:54;8.05;;;2.17;;
26936;SDS011;14495;48.116;11.676;2023-05-18T07:13:25;4.38;;;1.80;;
26936;SDS011;14495;48.116;11.676;2023-05-18T07:15:50;6.40;;;2.17;;
26936;SDS011;14495;48.116;11.676;2023-05-18T07:18:16;4.28;;;1.85;;
26936;SDS011;14495;48.116;11.676;2023-05-18T07:20:41;3.60;;;1.83;;
26936;SDS011;14495;48.116;11.676;2023-05-18T07:23:07;5.50;;;1.80;;
26936;SDS011;14495;48.116;11.676;2023-05-18T07:25:32;5.38;;;1.92;;
26936;SDS011;14495;48.116;11.676;2023-05-18T07:28:00;5.00;;;1.90;;
26936;SDS011;14495;48.116;11.676;2023-05-18T07:30:26;5.93;;;1.80;;
26936;SDS011;14495;48.116;11.676;2023-05-18T07:32:51;4.18;;;2.10;;
26936;SDS011;14495;48.116;11.676;2023-05-18T07:35:17;7.90;;;2.25;;
26936;SDS011;14495;48.116;11.676;2023-05-18T07:37:46;7.05;;;2.47;;
26936;SDS011;14495;48.116;11.676;2023-05-18T07:40:12;6.97;;;2.47;;
26936;SDS011;14495;48.116;11.676;2023-05-18T07:42:38;5.07;;;1.95;;
26936;SDS011;14495;48.116;11.676;2023-05-18T07:45:04;9.15;;;2.50;;
26936;SDS011;14495;48.116;11.676;2023-05-18T07:47:33;4.30;;;1.83;;
26936;SDS011;14495;48.116;11.676;2023-05-18T07:49:59;3.25;;;1.50;;
26936;SDS011;14495;48.116;11.676;2023-05-18T07:52:25;5.05;;;1.80;;
26936;SDS011;14495;48.116;11.676;2023-05-18T07:54:51;4.15;;;1.63;;
26936;SDS011;14495;48.116;11.676;2023-05-18T07:57:17;5.70;;;1.85;;
26936;SDS011;14495;48.116;11.676;2023-05-18T07:59:43;4.13;;;1.95;;
26936;SDS011;14495;48.116;11.676;2023-05-18T08:02:09;4.10;;;1.65;;
26936;SDS011;14495;48.116;11.676;2023-05-18T08:04:34;5.88;;;2.05;;
26936;SDS011;14495;48.116;11.676;2023-05-18T08:06:59;3.13;;;1.58;;
26936;SDS011;14495;48.116;11.676;2023-05-18T08:09:26;4.10;;;1.90;;
26936;SDS011;14495;48.116;11.676;2023-05-18T08:11:51;4.10;;;1.60;;
26936;SDS011;14495;48.116;11.676;2023-05-18T08:14:17;4.70;;;1.92;;
26936;SDS011;14495;48.116;11.676;2023-05-18T08:16:43;3.65;;;1.90;;
26936;SDS011;14495;48.116;11.676;2023-05-18T08:19:10;4.80;;;1.77;;
26936;SDS011;14495;48.116;11.676;2023-05-18T08:21:35;3.65;;;2.10;;
26936;SDS011;14495;48.116;11.676;2023-05-18T08:24:05;5.05;;;2.08;;
26936;SDS011;14495;48.116;11.676;2023-05-18T08:26:30;8.18;;;2.33;;
26936;SDS011;14495;48.116;11.676;2023-05-18T08:28:56;8.35;;;2.15;;
26936;SDS011;14495;48.116;11.676;2023-05-18T08:31:21;8.00;;;2.17;;
26936;SDS011;14495;48.116;11.676;2023-05-18T08:33:46;4.72;;;2.00;;
26936;SDS011;14495;48.116;11.676;2023-05-18T08:36:12;5.05;;;2.25;;
26936;SDS011;14495;48.116;11.676;2023-05-18T08:38:37;5.68;;;1.98;;
26936;SDS011;14495;48.116;11.676;2023-05-18T08:43:53;4.68;;;1.92;;
26936;SDS011;14495;48.116;11.676;2023-05-18T08:46:31;7.40;;;2.15;;
26936;SDS011;14495;48.116;11.676;2023-05-18T08:51:25;7.78;;;2.25;;
26936;SDS011;14495;48.116;11.676;2023-05-18T08:53:56;4.07;;;1.90;;
26936;SDS011;14495;48.116;11.676;2023-05-18T08:56:25;4.78;;;1.83;;
26936;SDS011;14495;48.116;11.676;2023-05-18T08:58:51;4.55;;;1.90;;
26936;SDS011;14495;48.116;11.676;2023-05-18T09:01:19;3.65;;;2.15;;
26936;SDS011;14495;48.116;11.676;2023-05-18T09:03:46;8.00;;;2.08;;
26936;SDS011;14495;48.116;11.676;2023-05-18T09:06:15;3.75;;;2.28;;
26936;SDS011;14495;48.116;11.676;2023-05-18T09:08:41;3.85;;;2.10;;
26936;SDS011;14495;48.116;11.676;2023-05-18T09:11:07;4.65;;;2.10;;
26936;SDS011;14495;48.116;11.676;2023-05-18T09:13:32;4.45;;;2.35;;
26936;SDS011;14495;48.116;11.676;2023-05-18T09:15:58;6.15;;;1.83;;
26936;SDS011;14495;48.116;11.676;2023-05-18T09:18:23;6.63;;;2.15;;
26936;SDS011;14495;48.116;11.676;2023-05-18T09:20:49;7.93;;;2.58;;
26936;SDS011;14495;48.116;11.676;2023-05-18T09:23:14;5.20;;;2.60;;
26936;SDS011;14495;48.116;11.676;2023-05-18T09:25:42;4.25;;;2.00;;
26936;SDS011;14495;48.116;11.676;2023-05-18T09:28:25;5.65;;;2.20;;
26936;SDS011;14495;48.116;11.676;2023-05-18T09:30:59;4.15;;;1.85;;
26936;SDS011;14495;48.116;11.676;2023-05-18T09:33:24;6.13;;;2.60;;
26936;SDS011;14495;48.116;11.676;2023-05-18T09:35:50;6.57;;;2.10;;
26936;SDS011;14495;48.116;11.676;2023-05-18T09:38:16;4.93;;;2.25;;
26936;SDS011;14495;48.116;11.676;2023-05-18T09:40:46;9.07;;;2.30;;
26936;SDS011;14495;48.116;11.676;2023-05-18T09:43:13;6.32;;;2.65;;
26936;SDS011;14495;48.116;11.676;2023-05-18T09:45:42;4.07;;;2.10;;
26936;SDS011;14495;48.116;11.676;2023-05-18T09:48:09;4.93;;;2.67;;
26936;SDS011;14495;48.116;11.676;2023-05-18T09:50:35;6.15;;;2.40;;
26936;SDS011;14495;48.116;11.676;2023-05-18T09:53:02;7.10;;;2.75;;
26936;SDS011;14495;48.116;11.676;2023-05-18T09:55:32;5.97;;;2.67;;
26936;SDS011;14495;48.116;11.676;2023-05-18T09:58:01;6.88;;;2.88;;
26936;SDS011;14495;48.116;11.676;2023-05-18T10:00:28;8.00;;;2.47;;
26936;SDS011;14495;48.116;11.676;2023-05-18T10:02:54;4.63;;;2.25;;
26936;SDS011;14495;48.116;11.676;2023-05-18T10:05:21;4.65;;;2.50;;
26936;SDS011;14495;48.116;11.676;2023-05-18T10:07:51;4.93;;;2.30;;
26936;SDS011;14495;48.116;11.676;2023-05-18T10:10:18;6.05;;;2.47;;
26936;SDS011;14495;48.116;11.676;2023-05-18T10:12:46;6.53;;;2.40;;
26936;SDS011;14495;48.116;11.676;2023-05-18T10:15:14;2.70;;;1.85;;
26936;SDS011;14495;48.116;11.676;2023-05-18T10:17:41;6.75;;;2.38;;
26936;SDS011;14495;48.116;11.676;2023-05-18T10:20:08;3.85;;;2.15;;
26936;SDS011;14495;48.116;11.676;2023-05-18T10:22:35;9.63;;;2.28;;
26936;SDS011;14495;48.116;11.676;2023-05-18T10:25:04;8.13;;;2.40;;
26936;SDS011;14495;48.116;11.676;2023-05-18T10:27:33;8.65;;;2.50;;
26936;SDS011;14495;48.116;11.676;2023-05-18T10:29:59;6.13;;;2.80;;
26936;SDS011;14495;48.116;11.676;2023-05-18T10:32:28;9.60;;;2.50;;
26936;SDS011;14495;48.116;11.676;2023-05-18T10:34:55;3.30;;;1.70;;
26936;SDS011;14495;48.116;11.676;2023-05-18T10:37:21;5.88;;;1.98;;
26936;SDS011;14495;48.116;11.676;2023-05-18T10:39:47;4.47;;;2.38;;
26936;SDS011;14495;48.116;11.676;2023-05-18T10:42:15;3.55;;;2.00;;
26936;SDS011;14495;48.116;11.676;2023-05-18T10:44:43;6.97;;;2.85;;
26936;SDS011;14495;48.116;11.676;2023-05-18T10:47:09;8.07;;;2.25;;
26936;SDS011;14495;48.116;11.676;2023-05-18T10:49:36;2.53;;;1.60;;
26936;SDS011;14495;48.116;11.676;2023-05-18T10:52:02;6.53;;;2.88;;
26936;SDS011;14495;48.116;11.676;2023-05-18T10:54:27;6.63;;;2.13;;
26936;SDS011;14495;48.116;11.676;2023-05-18T10:56:56;6.95;;;2.83;;
26936;SDS011;14495;48.116;11.676;2023-05-18T10:59:21;7.32;;;2.50;;
26936;SDS011;14495;48.116;11.676;2023-05-18T11:01:47;6.43;;;2.78;;
26936;SDS011;14495;48.116;11.676;2023-05-18T11:04:14;36.03;;;7.38;;
26936;SDS011;14495;48.116;11.676;2023-05-18T11:06:40;6.47;;;3.03;;
26936;SDS011;14495;48.116;11.676;2023-05-18T11:09:08;3.13;;;1.88;;
26936;SDS011;14495;48.116;11.676;2023-05-18T11:11:50;6.57;;;2.58;;
26936;SDS011;14495;48.116;11.676;2023-05-18T11:14:23;8.88;;;2.63;;
26936;SDS011;14495;48.116;11.676;2023-05-18T11:16:50;5.65;;;2.38;;
26936;SDS011;14495;48.116;11.676;2023-05-18T11:19:16;4.68;;;1.83;;
26936;SDS011;14495;48.116;11.676;2023-05-18T11:26:39;7.63;;;2.10;;
26936;SDS011;14495;48.116;11.676;2023-05-18T11:29:15;2.38;;;1.73;;
26936;SDS011;14495;48.116;11.676;2023-05-18T11:31:46;7.72;;;2.80;;
26936;SDS011;14495;48.116;11.676;2023-05-18T11:36:57;5.07;;;1.80;;
26936;SDS011;14495;48.116;11.676;2023-05-18T11:39:23;4.63;;;2.28;;
26936;SDS011;14495;48.116;11.676;2023-05-18T11:42:04;3.50;;;1.80;;
26936;SDS011;14495;48.116;11.676;2023-05-18T11:44:34;3.42;;;1.75;;
26936;SDS011;14495;48.116;11.676;2023-05-18T11:47:03;4.75;;;1.60;;
26936;SDS011;14495;48.116;11.676;2023-05-18T11:49:36;3.47;;;1.73;;
26936;SDS011;14495;48.116;11.676;2023-05-18T11:52:06;4.05;;;2.20;;
26936;SDS011;14495;48.116;11.676;2023-05-18T11:57:14;4.50;;;2.20;;
26936;SDS011;14495;48.116;11.676;2023-05-18T11:59:45;3.80;;;2.05;;
26936;SDS011;14495;48.116;11.676;2023-05-18T12:02:12;1.92;;;1.23;;
26936;SDS011;14495;48.116;11.676;2023-05-18T12:04:46;4.38;;;1.75;;
26936;SDS011;14495;48.116;11.676;2023-05-18T12:07:15;3.53;;;2.03;;
26936;SDS011;14495;48.116;11.676;2023-05-18T12:09:42;5.07;;;2.13;;
26936;SDS011;14495;48.116;11.676;2023-05-18T12:12:09;4.55;;;1.80;;
26936;SDS011;14495;48.116;11.676;2023-05-18T12:14:39;2.47;;;1.50;;
26936;SDS011;14495;48.116;11.676;2023-05-18T12:17:06;4.20;;;1.95;;
26936;SDS011;14495;48.116;11.676;2023-05-18T12:19:36;5.45;;;1.70;;
26936;SDS011;14495;48.116;11.676;2023-05-18T12:22:02;2.45;;;1.63;;
26936;SDS011;14495;48.116;11.676;2023-05-18T12:24:28;3.70;;;1.30;;
26936;SDS011;14495;48.116;11.676;2023-05-18T12:26:54;3.28;;;1.67;;
26936;SDS011;14495;48.116;11.676;2023-05-18T12:29:20;3.45;;;1.90;;
26936;SDS011;14495;48.116;11.676;2023-05-18T12:31:46;3.92;;;1.65;;
26936;SDS011;14495;48.116;11.676;2023-05-18T12:34:13;5.75;;;2.03;;
26936;SDS011;14495;48.116;11.676;2023-05-18T12:36:50;5.38;;;1.90;;
26936;SDS011;14495;48.116;11.676;2023-05-18T12:39:16;4.38;;;2.08;;
26936;SDS011;14495;48.116;11.676;2023-05-18T12:41:42;7.03;;;2.00;;
26936;SDS011;14495;48.116;11.676;2023-05-18T12:44:07;1.85;;;1.50;;
26936;SDS011;14495;48.116;11.676;2023-05-18T12:46:32;4.03;;;1.90;;
26936;SDS011;14495;48.116;11.676;2023-05-18T12:48:58;4.40;;;1.63;;
26936;SDS011;14495;48.116;11.676;2023-05-18T12:51:30;3.28;;;2.10;;
26936;SDS011;14495;48.116;11.676;2023-05-18T12:56:22;4.40;;;1.85;;
26936;SDS011;14495;48.116;11.676;2023-05-18T12:58:57;2.65;;;1.52;;
26936;SDS011;14495;48.116;11.676;2023-05-18T13:01:23;4.15;;;1.50;;
26936;SDS011;14495;48.116;11.676;2023-05-18T13:03:53;2.97;;;1.55;;
26936;SDS011;14495;48.116;11.676;2023-05-18T13:06:22;6.45;;;1.88;;
26936;SDS011;14495;48.116;11.676;2023-05-18T13:08:51;3.03;;;1.73;;
26936;SDS011;14495;48.116;11.676;2023-05-18T13:11:18;4.30;;;1.92;;
26936;SDS011;14495;48.116;11.676;2023-05-18T13:14:00;2.63;;;1.70;;
26936;SDS011;14495;48.116;11.676;2023-05-18T13:16:28;5.57;;;1.77;;
26936;SDS011;14495;48.116;11.676;2023-05-18T13:18:58;4.60;;;2.30;;
26936;SDS011;14495;48.116;11.676;2023-05-18T13:21:25;2.08;;;1.63;;
26936;SDS011;14495;48.116;11.676;2023-05-18T13:23:51;2.33;;;1.75;;
26936;SDS011;14495;48.116;11.676;2023-05-18T13:26:17;5.32;;;1.65;;
26936;SDS011;14495;48.116;11.676;2023-05-18T13:28:46;7.47;;;1.90;;
26936;SDS011;14495;48.116;11.676;2023-05-18T13:31:14;4.60;;;2.17;;
26936;SDS011;14495;48.116;11.676;2023-05-18T13:33:42;3.28;;;1.70;;
26936;SDS011;14495;48.116;11.676;2023-05-18T13:36:08;3.22;;;1.75;;
26936;SDS011;14495;48.116;11.676;2023-05-18T13:38:33;3.03;;;1.73;;
26936;SDS011;14495;48.116;11.676;2023-05-18T13:41:01;5.10;;;2.13;;
26936;SDS011;14495;48.116;11.676;2023-05-18T13:43:27;4.93;;;1.75;;
26936;SDS011;14495;48.116;11.676;2023-05-18T13:45:52;3.88;;;2.05;;
26936;SDS011;14495;48.116;11.676;2023-05-18T13:48:17;6.07;;;1.60;;
26936;SDS011;14495;48.116;11.676;2023-05-18T13:50:43;4.65;;;2.00;;
26936;SDS011;14495;48.116;11.676;2023-05-18T13:53:08;4.80;;;2.30;;
26936;SDS011;14495;48.116;11.676;2023-05-18T13:55:34;5.22;;;1.75;;
26936;SDS011;14495;48.116;11.676;2023-05-18T13:57:59;3.17;;;1.90;;
26936;SDS011;14495;48.116;11.676;2023-05-18T14:00:25;5.38;;;1.90;;
26936;SDS011;14495;48.116;11.676;2023-05-18T14:02:50;5.40;;;1.77;;
26936;SDS011;14495;48.116;11.676;2023-05-18T14:05:16;6.10;;;1.70;;
26936;SDS011;14495;48.116;11.676;2023-05-18T14:07:44;3.78;;;1.73;;
26936;SDS011;14495;48.116;11.676;2023-05-18T14:10:10;2.78;;;1.48;;
26936;SDS011;14495;48.116;11.676;2023-05-18T14:12:38;3.80;;;1.80;;
26936;SDS011;14495;48.116;11.676;2023-05-18T14:15:06;4.22;;;2.08;;
26936;SDS011;14495;48.116;11.676;2023-05-18T14:17:32;3.80;;;1.70;;
26936;SDS011;14495;48.116;11.676;2023-05-18T14:19:58;2.17;;;1.67;;
26936;SDS011;14495;48.116;11.676;2023-05-18T14:22:24;3.75;;;2.28;;
26936;SDS011;14495;48.116;11.676;2023-05-18T14:24:52;3.60;;;1.95;;
26936;SDS011;14495;48.116;11.676;2023-05-18T14:27:17;4.85;;;2.15;;
26936;SDS011;14495;48.116;11.676;2023-05-18T14:29:46;5.65;;;1.83;;
26936;SDS011;14495;48.116;11.676;2023-05-18T14:32:12;3.78;;;2.00;;
26936;SDS011;14495;48.116;11.676;2023-05-18T14:34:38;2.63;;;1.25;;
26936;SDS011;14495;48.116;11.676;2023-05-18T14:37:03;3.03;;;1.50;;
26936;SDS011;14495;48.116;11.676;2023-05-18T14:39:29;2.58;;;1.55;;
26936;SDS011;14495;48.116;11.676;2023-05-18T14:41:54;3.55;;;1.67;;
26936;SDS011;14495;48.116;11.676;2023-05-18T14:44:20;3.88;;;1.95;;
26936;SDS011;14495;48.116;11.676;2023-05-18T14:46:45;2.60;;;1.63;;
26936;SDS011;14495;48.116;11.676;2023-05-18T14:49:11;6.82;;;1.48;;
26936;SDS011;14495;48.116;11.676;2023-05-18T14:51:36;2.97;;;1.20;;
26936;SDS011;14495;48.116;11.676;2023-05-18T14:54:02;2.97;;;1.30;;
26936;SDS011;14495;48.116;11.676;2023-05-18T14:56:29;1.80;;;1.05;;